sensor_id;sensor_type;location;lat;lon;timestamp;temperature;humidity
1812;DHT22;904;47.814;11.134;2022-12-17T00:00:40;1.10;90.60
1812;DHT22;904;47.814;11.134;2022-12-17T00:03:25;1.10;90.80
1812;DHT22;904;47.814;11.134;2022-12-17T00:06:11;1.10;90.70
1812;DHT22;904;47.814;11.134;2022-12-17T00:08:56;1.10;90.50
1812;DHT22;904;47.814;11.134;2022-12-17T00:11:40;1.10;90.60
1812;DHT22;904;47.814;11.134;2022-12-17T00:14:29;1.00;90.60
1812;DHT22;904;47.814;11.134;2022-12-17T00:17:14;1.10;90.60
1812;DHT22;904;47.814;11.134;2022-12-17T00:19:58;1.10;90.70
1812;DHT22;904;47.814;11.134;2022-12-17T00:22:44;1.10;90.50
1812;DHT22;904;47.814;11.134;2022-12-17T00:25:29;1.10;90.70
1812;DHT22;904;47.814;11.134;2022-12-17T00:28:21;1.10;90.90
1812;DHT22;904;47.814;11.134;2022-12-17T00:31:05;1.10;90.70
1812;DHT22;904;47.814;11.134;2022-12-17T00:33:49;1.00;90.40
1812;DHT22;904;47.814;11.134;2022-12-17T00:36:34;1.00;90.30
1812;DHT22;904;47.814;11.134;2022-12-17T00:39:20;0.90;90.20
1812;DHT22;904;47.814;11.134;2022-12-17T00:42:04;0.90;90.10
1812;DHT22;904;47.814;11.134;2022-12-17T00:44:49;0.90;90.30
1812;DHT22;904;47.814;11.134;2022-12-17T00:47:33;0.90;90.20
1812;DHT22;904;47.814;11.134;2022-12-17T00:50:18;0.90;89.90
1812;DHT22;904;47.814;11.134;2022-12-17T00:53:03;0.90;90.00
1812;DHT22;904;47.814;11.134;2022-12-17T00:55:49;0.90;90.00
1812;DHT22;904;47.814;11.134;2022-12-17T00:58:33;0.80;90.00
1812;DHT22;904;47.814;11.134;2022-12-17T01:01:17;0.80;90.10
1812;DHT22;904;47.814;11.134;2022-12-17T01:04:02;0.80;90.00
1812;DHT22;904;47.814;11.134;2022-12-17T01:06:46;0.80;90.10
1812;DHT22;904;47.814;11.134;2022-12-17T01:09:33;0.80;90.10
1812;DHT22;904;47.814;11.134;2022-12-17T01:12:19;0.80;90.10
1812;DHT22;904;47.814;11.134;2022-12-17T01:15:05;0.80;90.10
1812;DHT22;904;47.814;11.134;2022-12-17T01:17:49;0.80;90.20
1812;DHT22;904;47.814;11.134;2022-12-17T01:20:34;0.80;90.10
1812;DHT22;904;47.814;11.134;2022-12-17T01:23:18;0.80;90.20
1812;DHT22;904;47.814;11.134;2022-12-17T01:26:03;0.80;90.00
1812;DHT22;904;47.814;11.134;2022-12-17T01:28:51;0.70;90.00
1812;DHT22;904;47.814;11.134;2022-12-17T01:31:36;0.70;90.20
1812;DHT22;904;47.814;11.134;2022-12-17T01:34:20;0.70;90.30
1812;DHT22;904;47.814;11.134;2022-12-17T01:37:05;0.70;90.40
1812;DHT22;904;47.814;11.134;2022-12-17T01:39:49;0.70;90.30
1812;DHT22;904;47.814;11.134;2022-12-17T01:42:41;0.70;90.30
1812;DHT22;904;47.814;11.134;2022-12-17T01:45:31;0.70;90.30
1812;DHT22;904;47.814;11.134;2022-12-17T01:48:19;0.70;90.30
1812;DHT22;904;47.814;11.134;2022-12-17T01:51:19;0.70;90.30
1812;DHT22;904;47.814;11.134;2022-12-17T01:54:12;0.70;90.30
1812;DHT22;904;47.814;11.134;2022-12-17T01:56:57;0.70;90.20
1812;DHT22;904;47.814;11.134;2022-12-17T01:59:52;0.70;90.30
1812;DHT22;904;47.814;11.134;2022-12-17T02:02:41;0.70;90.30
1812;DHT22;904;47.814;11.134;2022-12-17T02:05:35;0.70;90.50
1812;DHT22;904;47.814;11.134;2022-12-17T02:08:26;0.70;90.60
1812;DHT22;904;47.814;11.134;2022-12-17T02:11:22;0.60;90.50
1812;DHT22;904;47.814;11.134;2022-12-17T02:14:13;0.60;90.70
1812;DHT22;904;47.814;11.134;2022-12-17T02:17:02;0.70;90.70
1812;DHT22;904;47.814;11.134;2022-12-17T02:19:56;0.70;90.70
1812;DHT22;904;47.814;11.134;2022-12-17T02:22:52;0.70;90.80
1812;DHT22;904;47.814;11.134;2022-12-17T02:25:45;0.60;90.80
1812;DHT22;904;47.814;11.134;2022-12-17T02:28:34;0.60;90.90
1812;DHT22;904;47.814;11.134;2022-12-17T02:31:20;0.70;90.70
1812;DHT22;904;47.814;11.134;2022-12-17T02:34:06;0.70;90.80
1812;DHT22;904;47.814;11.134;2022-12-17T02:36:50;0.70;91.10
1812;DHT22;904;47.814;11.134;2022-12-17T02:39:35;0.70;90.90
1812;DHT22;904;47.814;11.134;2022-12-17T02:42:21;0.70;90.90
1812;DHT22;904;47.814;11.134;2022-12-17T02:45:08;0.70;90.80
1812;DHT22;904;47.814;11.134;2022-12-17T02:47:53;0.70;90.80
1812;DHT22;904;47.814;11.134;2022-12-17T02:50:47;0.70;90.80
1812;DHT22;904;47.814;11.134;2022-12-17T02:53:32;0.70;90.70
1812;DHT22;904;47.814;11.134;2022-12-17T02:56:23;0.70;90.80
1812;DHT22;904;47.814;11.134;2022-12-17T02:59:08;0.60;90.50
1812;DHT22;904;47.814;11.134;2022-12-17T03:01:54;0.60;90.30
1812;DHT22;904;47.814;11.134;2022-12-17T03:04:39;0.60;90.20
1812;DHT22;904;47.814;11.134;2022-12-17T03:07:24;0.70;90.30
1812;DHT22;904;47.814;11.134;2022-12-17T03:10:09;0.70;90.20
1812;DHT22;904;47.814;11.134;2022-12-17T03:12:53;0.70;90.30
1812;DHT22;904;47.814;11.134;2022-12-17T03:15:37;0.70;90.10
1812;DHT22;904;47.814;11.134;2022-12-17T03:18:23;0.60;89.90
1812;DHT22;904;47.814;11.134;2022-12-17T03:21:07;0.60;90.10
1812;DHT22;904;47.814;11.134;2022-12-17T03:23:52;0.50;90.10
1812;DHT22;904;47.814;11.134;2022-12-17T03:26:37;0.50;90.00
1812;DHT22;904;47.814;11.134;2022-12-17T03:29:21;0.50;90.10
1812;DHT22;904;47.814;11.134;2022-12-17T03:32:06;0.40;90.20
1812;DHT22;904;47.814;11.134;2022-12-17T03:34:51;0.50;90.10
1812;DHT22;904;47.814;11.134;2022-12-17T03:37:35;0.50;90.20
1812;DHT22;904;47.814;11.134;2022-12-17T03:40:20;0.50;90.30
1812;DHT22;904;47.814;11.134;2022-12-17T03:43:05;0.50;90.20
1812;DHT22;904;47.814;11.134;2022-12-17T03:45:51;0.50;90.20
1812;DHT22;904;47.814;11.134;2022-12-17T03:48:38;0.50;90.10
1812;DHT22;904;47.814;11.134;2022-12-17T03:51:24;0.60;90.10
1812;DHT22;904;47.814;11.134;2022-12-17T03:54:09;0.60;89.90
1812;DHT22;904;47.814;11.134;2022-12-17T03:56:58;0.60;89.90
1812;DHT22;904;47.814;11.134;2022-12-17T03:59:42;0.50;89.90
1812;DHT22;904;47.814;11.134;2022-12-17T04:02:27;0.50;89.80
1812;DHT22;904;47.814;11.134;2022-12-17T04:05:11;0.50;90.00
1812;DHT22;904;47.814;11.134;2022-12-17T04:07:58;0.50;89.90
1812;DHT22;904;47.814;11.134;2022-12-17T04:10:42;0.50;89.20
1812;DHT22;904;47.814;11.134;2022-12-17T04:13:23;0.50;89.50
1812;DHT22;904;47.814;11.134;2022-12-17T04:16:10;0.50;89.20
1812;DHT22;904;47.814;11.134;2022-12-17T04:18:50;0.50;89.00
1812;DHT22;904;47.814;11.134;2022-12-17T04:21:35;0.50;88.70
1812;DHT22;904;47.814;11.134;2022-12-17T04:24:21;0.50;88.30
1812;DHT22;904;47.814;11.134;2022-12-17T04:27:05;0.50;88.00
1812;DHT22;904;47.814;11.134;2022-12-17T04:29:50;0.50;87.70
1812;DHT22;904;47.814;11.134;2022-12-17T04:32:35;0.40;87.70
1812;DHT22;904;47.814;11.134;2022-12-17T04:35:19;0.40;87.80
1812;DHT22;904;47.814;11.134;2022-12-17T04:38:05;0.40;87.50
1812;DHT22;904;47.814;11.134;2022-12-17T04:40:54;0.30;86.90
1812;DHT22;904;47.814;11.134;2022-12-17T04:43:39;0.30;86.70
1812;DHT22;904;47.814;11.134;2022-12-17T04:46:24;0.30;87.00
1812;DHT22;904;47.814;11.134;2022-12-17T04:49:08;0.30;86.50
1812;DHT22;904;47.814;11.134;2022-12-17T04:51:52;0.30;86.70
1812;DHT22;904;47.814;11.134;2022-12-17T04:54:37;0.20;86.30
1812;DHT22;904;47.814;11.134;2022-12-17T04:57:23;0.10;86.40
1812;DHT22;904;47.814;11.134;2022-12-17T05:00:09;0.10;86.80
1812;DHT22;904;47.814;11.134;2022-12-17T05:02:54;0.10;86.70
1812;DHT22;904;47.814;11.134;2022-12-17T05:05:38;0.10;87.50
1812;DHT22;904;47.814;11.134;2022-12-17T05:08:22;0.00;87.50
1812;DHT22;904;47.814;11.134;2022-12-17T05:11:07;0.10;88.30
1812;DHT22;904;47.814;11.134;2022-12-17T05:13:53;0.10;88.10
1812;DHT22;904;47.814;11.134;2022-12-17T05:16:37;0.00;88.10
1812;DHT22;904;47.814;11.134;2022-12-17T05:19:22;0.00;87.90
1812;DHT22;904;47.814;11.134;2022-12-17T05:22:06;0.00;87.70
1812;DHT22;904;47.814;11.134;2022-12-17T05:24:50;0.00;87.40
1812;DHT22;904;47.814;11.134;2022-12-17T05:27:35;0.00;87.20
1812;DHT22;904;47.814;11.134;2022-12-17T05:30:21;0.00;87.50
1812;DHT22;904;47.814;11.134;2022-12-17T05:33:06;-0.10;86.60
1812;DHT22;904;47.814;11.134;2022-12-17T05:35:51;-0.20;86.80
1812;DHT22;904;47.814;11.134;2022-12-17T05:38:35;-0.20;87.20
1812;DHT22;904;47.814;11.134;2022-12-17T05:41:20;-0.20;87.00
1812;DHT22;904;47.814;11.134;2022-12-17T05:44:05;-0.20;86.70
1812;DHT22;904;47.814;11.134;2022-12-17T05:46:51;-0.30;86.10
1812;DHT22;904;47.814;11.134;2022-12-17T05:49:35;-0.30;86.20
1812;DHT22;904;47.814;11.134;2022-12-17T05:52:20;-0.30;85.60
1812;DHT22;904;47.814;11.134;2022-12-17T05:55:05;-0.40;84.10
1812;DHT22;904;47.814;11.134;2022-12-17T05:57:50;-0.40;84.10
1812;DHT22;904;47.814;11.134;2022-12-17T06:00:34;-0.60;83.00
1812;DHT22;904;47.814;11.134;2022-12-17T06:03:20;-0.80;82.50
1812;DHT22;904;47.814;11.134;2022-12-17T06:06:05;-1.00;81.70
1812;DHT22;904;47.814;11.134;2022-12-17T06:08:50;-1.30;81.70
1812;DHT22;904;47.814;11.134;2022-12-17T06:11:34;-1.30;82.30
1812;DHT22;904;47.814;11.134;2022-12-17T06:14:19;-1.40;81.20
1812;DHT22;904;47.814;11.134;2022-12-17T06:17:03;-1.70;79.90
1812;DHT22;904;47.814;11.134;2022-12-17T06:19:49;-1.80;80.50
1812;DHT22;904;47.814;11.134;2022-12-17T06:22:34;-1.80;81.10
1812;DHT22;904;47.814;11.134;2022-12-17T06:25:18;-1.90;81.40
1812;DHT22;904;47.814;11.134;2022-12-17T06:28:14;-2.00;80.90
1812;DHT22;904;47.814;11.134;2022-12-17T06:30:59;-2.10;81.50
1812;DHT22;904;47.814;11.134;2022-12-17T06:33:43;-2.20;81.70
1812;DHT22;904;47.814;11.134;2022-12-17T06:36:29;-2.30;82.10
1812;DHT22;904;47.814;11.134;2022-12-17T06:39:14;-2.30;82.50
1812;DHT22;904;47.814;11.134;2022-12-17T06:41:58;-2.30;82.40
1812;DHT22;904;47.814;11.134;2022-12-17T06:44:57;-2.30;82.80
1812;DHT22;904;47.814;11.134;2022-12-17T06:47:41;-2.40;82.60
1812;DHT22;904;47.814;11.134;2022-12-17T06:50:26;-2.40;82.90
1812;DHT22;904;47.814;11.134;2022-12-17T06:53:12;-2.40;82.70
1812;DHT22;904;47.814;11.134;2022-12-17T06:55:57;-2.40;83.20
1812;DHT22;904;47.814;11.134;2022-12-17T06:58:42;-2.40;83.40
1812;DHT22;904;47.814;11.134;2022-12-17T07:01:26;-2.30;83.80
1812;DHT22;904;47.814;11.134;2022-12-17T07:04:11;-2.40;83.40
1812;DHT22;904;47.814;11.134;2022-12-17T07:06:55;-2.50;83.50
1812;DHT22;904;47.814;11.134;2022-12-17T07:09:41;-2.50;84.30
1812;DHT22;904;47.814;11.134;2022-12-17T07:12:41;-2.40;83.50
1812;DHT22;904;47.814;11.134;2022-12-17T07:15:25;-2.40;84.20
1812;DHT22;904;47.814;11.134;2022-12-17T07:18:10;-2.40;84.10
1812;DHT22;904;47.814;11.134;2022-12-17T07:20:54;-2.30;84.40
1812;DHT22;904;47.814;11.134;2022-12-17T07:23:38;-2.30;84.90
1812;DHT22;904;47.814;11.134;2022-12-17T07:26:25;-2.20;85.70
1812;DHT22;904;47.814;11.134;2022-12-17T07:29:09;-2.10;83.80
1812;DHT22;904;47.814;11.134;2022-12-17T07:32:08;-2.10;83.80
1812;DHT22;904;47.814;11.134;2022-12-17T07:34:53;-2.10;82.80
1812;DHT22;904;47.814;11.134;2022-12-17T07:37:42;-2.30;82.00
1812;DHT22;904;47.814;11.134;2022-12-17T07:40:26;-2.40;82.70
1812;DHT22;904;47.814;11.134;2022-12-17T07:43:13;-2.40;82.80
1812;DHT22;904;47.814;11.134;2022-12-17T07:45:58;-2.20;82.60
1812;DHT22;904;47.814;11.134;2022-12-17T07:48:43;-2.20;84.00
1812;DHT22;904;47.814;11.134;2022-12-17T07:51:27;-2.00;84.70
1812;DHT22;904;47.814;11.134;2022-12-17T07:54:12;-1.90;85.10
1812;DHT22;904;47.814;11.134;2022-12-17T07:56:56;-1.70;85.50
1812;DHT22;904;47.814;11.134;2022-12-17T07:59:42;-1.60;85.60
1812;DHT22;904;47.814;11.134;2022-12-17T08:02:26;-1.40;85.10
1812;DHT22;904;47.814;11.134;2022-12-17T08:05:12;-1.30;84.00
1812;DHT22;904;47.814;11.134;2022-12-17T08:07:56;-1.20;83.70
1812;DHT22;904;47.814;11.134;2022-12-17T08:10:41;-1.10;82.70
1812;DHT22;904;47.814;11.134;2022-12-17T08:13:25;-1.00;82.70
1812;DHT22;904;47.814;11.134;2022-12-17T08:16:11;-0.80;81.60
1812;DHT22;904;47.814;11.134;2022-12-17T08:18:56;-0.90;77.50
1812;DHT22;904;47.814;11.134;2022-12-17T08:21:40;-0.90;79.00
1812;DHT22;904;47.814;11.134;2022-12-17T08:24:25;-0.90;78.50
1812;DHT22;904;47.814;11.134;2022-12-17T08:27:09;-0.80;78.60
1812;DHT22;904;47.814;11.134;2022-12-17T08:29:54;-0.60;79.20
1812;DHT22;904;47.814;11.134;2022-12-17T08:32:41;-0.40;79.30
1812;DHT22;904;47.814;11.134;2022-12-17T08:35:26;-0.40;79.20
1812;DHT22;904;47.814;11.134;2022-12-17T08:38:11;-0.30;79.40
1812;DHT22;904;47.814;11.134;2022-12-17T08:40:55;-0.30;79.30
1812;DHT22;904;47.814;11.134;2022-12-17T08:43:42;-0.10;79.20
1812;DHT22;904;47.814;11.134;2022-12-17T08:46:23;0.00;78.30
1812;DHT22;904;47.814;11.134;2022-12-17T08:49:09;0.20;76.60
1812;DHT22;904;47.814;11.134;2022-12-17T08:51:54;0.30;76.30
1812;DHT22;904;47.814;11.134;2022-12-17T08:54:39;0.40;74.30
1812;DHT22;904;47.814;11.134;2022-12-17T08:57:34;0.60;73.80
1812;DHT22;904;47.814;11.134;2022-12-17T09:00:19;0.80;73.60
1812;DHT22;904;47.814;11.134;2022-12-17T09:03:04;0.80;72.20
1812;DHT22;904;47.814;11.134;2022-12-17T09:05:51;0.70;70.60
1812;DHT22;904;47.814;11.134;2022-12-17T09:08:35;0.60;69.20
1812;DHT22;904;47.814;11.134;2022-12-17T09:11:22;0.40;68.90
1812;DHT22;904;47.814;11.134;2022-12-17T09:14:06;0.10;68.30
1812;DHT22;904;47.814;11.134;2022-12-17T09:16:51;0.00;69.00
1812;DHT22;904;47.814;11.134;2022-12-17T09:19:35;0.00;70.00
1812;DHT22;904;47.814;11.134;2022-12-17T09:22:22;0.10;70.70
1812;DHT22;904;47.814;11.134;2022-12-17T09:25:07;0.40;71.40
1812;DHT22;904;47.814;11.134;2022-12-17T09:27:51;0.80;72.30
1812;DHT22;904;47.814;11.134;2022-12-17T09:30:39;1.40;72.30
1812;DHT22;904;47.814;11.134;2022-12-17T09:33:24;2.20;70.20
1812;DHT22;904;47.814;11.134;2022-12-17T09:36:08;2.60;69.70
1812;DHT22;904;47.814;11.134;2022-12-17T09:38:55;3.40;69.20
1812;DHT22;904;47.814;11.134;2022-12-17T09:41:46;4.10;66.10
1812;DHT22;904;47.814;11.134;2022-12-17T09:44:47;4.70;62.60
1812;DHT22;904;47.814;11.134;2022-12-17T09:47:40;5.00;60.50
1812;DHT22;904;47.814;11.134;2022-12-17T09:50:26;5.00;59.60
1812;DHT22;904;47.814;11.134;2022-12-17T09:53:19;5.10;58.20
1812;DHT22;904;47.814;11.134;2022-12-17T09:56:08;4.70;55.60
1812;DHT22;904;47.814;11.134;2022-12-17T09:58:53;4.20;54.20
1812;DHT22;904;47.814;11.134;2022-12-17T10:01:40;3.40;54.20
1812;DHT22;904;47.814;11.134;2022-12-17T10:04:31;2.60;55.70
1812;DHT22;904;47.814;11.134;2022-12-17T10:07:19;2.30;57.90
1812;DHT22;904;47.814;11.134;2022-12-17T10:10:13;2.30;57.80
1812;DHT22;904;47.814;11.134;2022-12-17T10:13:10;2.20;59.00
1812;DHT22;904;47.814;11.134;2022-12-17T10:15:55;2.20;59.70
1812;DHT22;904;47.814;11.134;2022-12-17T10:18:39;2.10;60.40
1812;DHT22;904;47.814;11.134;2022-12-17T10:21:26;2.00;61.40
1812;DHT22;904;47.814;11.134;2022-12-17T10:24:11;1.90;61.60
1812;DHT22;904;47.814;11.134;2022-12-17T10:26:55;1.80;61.60
1812;DHT22;904;47.814;11.134;2022-12-17T10:29:43;1.70;62.50
1812;DHT22;904;47.814;11.134;2022-12-17T10:32:36;1.60;63.10
1812;DHT22;904;47.814;11.134;2022-12-17T10:35:21;1.30;63.70
1812;DHT22;904;47.814;11.134;2022-12-17T10:38:10;1.10;64.50
1812;DHT22;904;47.814;11.134;2022-12-17T10:40:57;1.10;66.20
1812;DHT22;904;47.814;11.134;2022-12-17T10:43:42;1.20;66.50
1812;DHT22;904;47.814;11.134;2022-12-17T10:46:28;1.30;66.00
1812;DHT22;904;47.814;11.134;2022-12-17T10:49:15;1.40;66.10
1812;DHT22;904;47.814;11.134;2022-12-17T10:52:01;1.40;66.40
1812;DHT22;904;47.814;11.134;2022-12-17T10:54:55;1.50;66.90
1812;DHT22;904;47.814;11.134;2022-12-17T10:57:40;1.80;67.30
1812;DHT22;904;47.814;11.134;2022-12-17T11:00:27;2.00;66.20
1812;DHT22;904;47.814;11.134;2022-12-17T11:03:26;2.30;64.60
1812;DHT22;904;47.814;11.134;2022-12-17T11:06:14;2.70;64.80
1812;DHT22;904;47.814;11.134;2022-12-17T11:09:04;2.80;63.40
1812;DHT22;904;47.814;11.134;2022-12-17T11:11:49;3.00;63.30
1812;DHT22;904;47.814;11.134;2022-12-17T11:14:49;3.00;60.20
1812;DHT22;904;47.814;11.134;2022-12-17T11:17:35;3.00;59.20
1812;DHT22;904;47.814;11.134;2022-12-17T11:20:29;2.90;59.40
1812;DHT22;904;47.814;11.134;2022-12-17T11:23:18;2.90;61.00
1812;DHT22;904;47.814;11.134;2022-12-17T11:26:06;3.10;59.10
1812;DHT22;904;47.814;11.134;2022-12-17T11:28:54;3.10;58.70
1812;DHT22;904;47.814;11.134;2022-12-17T11:31:49;3.30;59.00
1812;DHT22;904;47.814;11.134;2022-12-17T11:34:51;3.30;57.40
1812;DHT22;904;47.814;11.134;2022-12-17T11:37:53;3.60;59.00
1812;DHT22;904;47.814;11.134;2022-12-17T11:40:42;3.60;57.20
1812;DHT22;904;47.814;11.134;2022-12-17T11:43:33;3.50;57.70
1812;DHT22;904;47.814;11.134;2022-12-17T11:46:29;3.50;56.70
1812;DHT22;904;47.814;11.134;2022-12-17T11:49:21;3.60;56.10
1812;DHT22;904;47.814;11.134;2022-12-17T11:52:10;3.50;56.10
1812;DHT22;904;47.814;11.134;2022-12-17T11:55:05;3.40;56.70
1812;DHT22;904;47.814;11.134;2022-12-17T11:57:54;3.10;57.30
1812;DHT22;904;47.814;11.134;2022-12-17T12:00:48;3.10;58.90
1812;DHT22;904;47.814;11.134;2022-12-17T12:03:42;3.10;59.80
1812;DHT22;904;47.814;11.134;2022-12-17T12:06:35;3.10;59.50
1812;DHT22;904;47.814;11.134;2022-12-17T12:09:30;3.10;59.70
1812;DHT22;904;47.814;11.134;2022-12-17T12:12:38;3.00;61.20
1812;DHT22;904;47.814;11.134;2022-12-17T12:15:34;3.00;60.50
1812;DHT22;904;47.814;11.134;2022-12-17T12:18:28;2.70;61.10
1812;DHT22;904;47.814;11.134;2022-12-17T12:21:24;2.70;61.70
1812;DHT22;904;47.814;11.134;2022-12-17T12:24:30;2.70;62.20
1812;DHT22;904;47.814;11.134;2022-12-17T12:27:24;2.70;61.70
1812;DHT22;904;47.814;11.134;2022-12-17T12:30:14;2.70;62.00
1812;DHT22;904;47.814;11.134;2022-12-17T12:33:10;2.70;61.80
1812;DHT22;904;47.814;11.134;2022-12-17T12:36:08;2.60;61.30
1812;DHT22;904;47.814;11.134;2022-12-17T12:38:55;2.30;62.10
1812;DHT22;904;47.814;11.134;2022-12-17T12:41:45;2.30;63.40
1812;DHT22;904;47.814;11.134;2022-12-17T12:44:42;2.30;63.40
1812;DHT22;904;47.814;11.134;2022-12-17T12:47:39;2.20;63.20
1812;DHT22;904;47.814;11.134;2022-12-17T12:50:31;2.00;63.60
1812;DHT22;904;47.814;11.134;2022-12-17T12:53:21;1.80;64.10
1812;DHT22;904;47.814;11.134;2022-12-17T12:56:24;1.70;65.20
1812;DHT22;904;47.814;11.134;2022-12-17T12:59:11;1.60;65.80
1812;DHT22;904;47.814;11.134;2022-12-17T13:02:00;1.50;66.40
1812;DHT22;904;47.814;11.134;2022-12-17T13:04:54;1.40;66.70
1812;DHT22;904;47.814;11.134;2022-12-17T13:07:38;1.30;67.50
1812;DHT22;904;47.814;11.134;2022-12-17T13:10:23;1.20;67.60
1812;DHT22;904;47.814;11.134;2022-12-17T13:12:53;1.20;68.00
1812;DHT22;904;47.814;11.134;2022-12-17T13:15:25;1.20;68.70
1812;DHT22;904;47.814;11.134;2022-12-17T13:18:03;1.20;69.00
1812;DHT22;904;47.814;11.134;2022-12-17T13:20:42;1.20;69.40
1812;DHT22;904;47.814;11.134;2022-12-17T13:23:16;1.20;69.60
1812;DHT22;904;47.814;11.134;2022-12-17T13:28:48;1.50;69.70
1812;DHT22;904;47.814;11.134;2022-12-17T13:31:19;1.50;70.00
1812;DHT22;904;47.814;11.134;2022-12-17T13:33:52;1.60;69.00
1812;DHT22;904;47.814;11.134;2022-12-17T13:36:27;1.60;70.00
1812;DHT22;904;47.814;11.134;2022-12-17T13:39:00;1.60;70.30
1812;DHT22;904;47.814;11.134;2022-12-17T13:41:31;1.60;70.40
1812;DHT22;904;47.814;11.134;2022-12-17T13:44:01;1.60;69.70
1812;DHT22;904;47.814;11.134;2022-12-17T13:46:40;1.60;69.90
1812;DHT22;904;47.814;11.134;2022-12-17T13:49:18;1.60;69.40
1812;DHT22;904;47.814;11.134;2022-12-17T13:51:47;1.70;70.10
1812;DHT22;904;47.814;11.134;2022-12-17T13:54:25;1.70;70.10
1812;DHT22;904;47.814;11.134;2022-12-17T13:56:52;1.60;69.20
1812;DHT22;904;47.814;11.134;2022-12-17T13:59:22;1.50;70.00
1812;DHT22;904;47.814;11.134;2022-12-17T14:01:51;1.50;70.30
1812;DHT22;904;47.814;11.134;2022-12-17T14:04:20;1.50;71.00
1812;DHT22;904;47.814;11.134;2022-12-17T14:06:49;1.50;71.00
1812;DHT22;904;47.814;11.134;2022-12-17T14:09:18;1.50;70.90
1812;DHT22;904;47.814;11.134;2022-12-17T14:11:46;1.50;71.50
1812;DHT22;904;47.814;11.134;2022-12-17T14:14:33;1.50;71.20
1812;DHT22;904;47.814;11.134;2022-12-17T14:17:01;1.50;70.90
1812;DHT22;904;47.814;11.134;2022-12-17T14:19:29;1.40;70.60
1812;DHT22;904;47.814;11.134;2022-12-17T14:21:59;1.40;71.00
1812;DHT22;904;47.814;11.134;2022-12-17T14:24:27;1.30;70.70
1812;DHT22;904;47.814;11.134;2022-12-17T14:26:56;1.20;71.00
1812;DHT22;904;47.814;11.134;2022-12-17T14:29:24;1.20;71.30
1812;DHT22;904;47.814;11.134;2022-12-17T14:31:54;1.10;71.80
1812;DHT22;904;47.814;11.134;2022-12-17T14:34:22;1.00;72.30
1812;DHT22;904;47.814;11.134;2022-12-17T14:36:54;1.00;72.20
1812;DHT22;904;47.814;11.134;2022-12-17T14:39:25;1.00;72.70
1812;DHT22;904;47.814;11.134;2022-12-17T14:41:53;0.90;73.20
1812;DHT22;904;47.814;11.134;2022-12-17T14:44:47;0.90;73.00
1812;DHT22;904;47.814;11.134;2022-12-17T14:47:18;0.90;73.00
1812;DHT22;904;47.814;11.134;2022-12-17T14:49:57;0.90;73.10
1812;DHT22;904;47.814;11.134;2022-12-17T14:52:34;0.90;73.60
1812;DHT22;904;47.814;11.134;2022-12-17T14:55:31;0.90;73.50
1812;DHT22;904;47.814;11.134;2022-12-17T14:58:17;0.80;74.10
1812;DHT22;904;47.814;11.134;2022-12-17T15:00:47;0.80;74.70
1812;DHT22;904;47.814;11.134;2022-12-17T15:03:21;0.80;74.90
1812;DHT22;904;47.814;11.134;2022-12-17T15:05:52;0.70;74.40
1812;DHT22;904;47.814;11.134;2022-12-17T15:08:21;0.70;75.30
1812;DHT22;904;47.814;11.134;2022-12-17T15:10:50;0.50;75.40
1812;DHT22;904;47.814;11.134;2022-12-17T15:13:17;0.50;75.90
1812;DHT22;904;47.814;11.134;2022-12-17T15:15:45;0.50;76.00
1812;DHT22;904;47.814;11.134;2022-12-17T15:18:12;0.40;76.40
1812;DHT22;904;47.814;11.134;2022-12-17T15:20:39;0.40;76.30
1812;DHT22;904;47.814;11.134;2022-12-17T15:23:14;0.40;76.50
1812;DHT22;904;47.814;11.134;2022-12-17T15:25:50;0.40;76.40
1812;DHT22;904;47.814;11.134;2022-12-17T15:28:19;0.30;76.40
1812;DHT22;904;47.814;11.134;2022-12-17T15:30:47;0.30;76.80
1812;DHT22;904;47.814;11.134;2022-12-17T15:33:15;0.30;77.70
1812;DHT22;904;47.814;11.134;2022-12-17T15:35:44;0.30;78.10
1812;DHT22;904;47.814;11.134;2022-12-17T15:38:17;0.20;78.10
1812;DHT22;904;47.814;11.134;2022-12-17T15:40:54;0.20;78.70
1812;DHT22;904;47.814;11.134;2022-12-17T15:43:27;0.00;78.80
1812;DHT22;904;47.814;11.134;2022-12-17T15:45:59;-0.10;79.50
1812;DHT22;904;47.814;11.134;2022-12-17T15:48:26;-0.20;79.90
1812;DHT22;904;47.814;11.134;2022-12-17T15:50:53;-0.30;80.60
1812;DHT22;904;47.814;11.134;2022-12-17T15:53:21;-0.30;81.40
1812;DHT22;904;47.814;11.134;2022-12-17T15:55:48;-0.30;81.40
1812;DHT22;904;47.814;11.134;2022-12-17T15:58:16;-0.40;81.50
1812;DHT22;904;47.814;11.134;2022-12-17T16:00:44;-0.40;82.00
1812;DHT22;904;47.814;11.134;2022-12-17T16:03:11;-0.40;82.00
1812;DHT22;904;47.814;11.134;2022-12-17T16:05:38;-0.40;82.10
1812;DHT22;904;47.814;11.134;2022-12-17T16:08:09;-0.40;82.30
1812;DHT22;904;47.814;11.134;2022-12-17T16:10:39;-0.40;82.70
1812;DHT22;904;47.814;11.134;2022-12-17T16:13:08;-0.40;83.10
1812;DHT22;904;47.814;11.134;2022-12-17T16:15:36;-0.40;83.20
1812;DHT22;904;47.814;11.134;2022-12-17T16:18:04;-0.40;83.30
1812;DHT22;904;47.814;11.134;2022-12-17T16:20:31;-0.50;83.60
1812;DHT22;904;47.814;11.134;2022-12-17T16:22:58;-0.60;84.00
1812;DHT22;904;47.814;11.134;2022-12-17T16:25:30;-0.60;84.90
1812;DHT22;904;47.814;11.134;2022-12-17T16:27:57;-0.50;85.00
1812;DHT22;904;47.814;11.134;2022-12-17T16:30:24;-0.50;85.00
1812;DHT22;904;47.814;11.134;2022-12-17T16:32:53;-0.50;85.10
1812;DHT22;904;47.814;11.134;2022-12-17T16:35:23;-0.60;86.00
1812;DHT22;904;47.814;11.134;2022-12-17T16:37:51;-0.70;86.20
1812;DHT22;904;47.814;11.134;2022-12-17T16:40:18;-0.80;88.00
1812;DHT22;904;47.814;11.134;2022-12-17T16:42:45;-0.80;87.50
1812;DHT22;904;47.814;11.134;2022-12-17T16:45:12;-0.80;87.50
1812;DHT22;904;47.814;11.134;2022-12-17T16:47:40;-0.70;87.20
1812;DHT22;904;47.814;11.134;2022-12-17T16:50:08;-0.70;87.60
1812;DHT22;904;47.814;11.134;2022-12-17T16:52:36;-0.70;87.10
1812;DHT22;904;47.814;11.134;2022-12-17T16:55:03;-0.60;87.50
1812;DHT22;904;47.814;11.134;2022-12-17T16:57:30;-0.60;87.20
1812;DHT22;904;47.814;11.134;2022-12-17T16:59:58;-0.60;87.10
1812;DHT22;904;47.814;11.134;2022-12-17T17:02:25;-0.50;86.90
1812;DHT22;904;47.814;11.134;2022-12-17T17:04:52;-0.50;86.40
1812;DHT22;904;47.814;11.134;2022-12-17T17:07:21;-0.50;86.00
1812;DHT22;904;47.814;11.134;2022-12-17T17:09:48;-0.40;86.50
1812;DHT22;904;47.814;11.134;2022-12-17T17:12:15;-0.40;86.40
1812;DHT22;904;47.814;11.134;2022-12-17T17:14:42;-0.40;86.90
1812;DHT22;904;47.814;11.134;2022-12-17T17:17:09;-0.50;87.00
1812;DHT22;904;47.814;11.134;2022-12-17T17:19:37;-0.50;87.10
1812;DHT22;904;47.814;11.134;2022-12-17T17:22:04;-0.50;87.10
1812;DHT22;904;47.814;11.134;2022-12-17T17:24:33;-0.50;87.40
1812;DHT22;904;47.814;11.134;2022-12-17T17:27:09;-0.50;87.70
1812;DHT22;904;47.814;11.134;2022-12-17T17:29:36;-0.40;87.50
1812;DHT22;904;47.814;11.134;2022-12-17T17:32:03;-0.40;87.00
1812;DHT22;904;47.814;11.134;2022-12-17T17:34:31;-0.50;87.50
1812;DHT22;904;47.814;11.134;2022-12-17T17:36:58;-0.70;88.30
1812;DHT22;904;47.814;11.134;2022-12-17T17:39:25;-0.60;88.60
1812;DHT22;904;47.814;11.134;2022-12-17T17:41:54;-0.60;88.90
1812;DHT22;904;47.814;11.134;2022-12-17T17:44:26;-0.70;88.90
1812;DHT22;904;47.814;11.134;2022-12-17T17:46:53;-0.70;89.00
1812;DHT22;904;47.814;11.134;2022-12-17T17:49:20;-0.70;88.70
1812;DHT22;904;47.814;11.134;2022-12-17T17:51:49;-0.70;88.30
1812;DHT22;904;47.814;11.134;2022-12-17T17:54:17;-0.60;88.10